Time;durP1;ratioP1;P1;durP2;ratioP2;P2;SDS_P1;SDS_P2;PMS_P1;PMS_P2;Temp;Humidity;BMP_temperature;BMP_pressure;BME280_temperature;BME280_humidity;BME280_pressure;Samples;Min_cycle;Max_cycle;Signal;HPM_P1;HPM_P2
2022/01/18 00:02:01;;;;;;;;;69.25;53.75;;;;;7.06;63.19;103350.06;5042334;28;45365;-47
2022/01/18 00:04:27;;;;;;;;;64.25;52.50;;;;;7.06;63.21;103351.78;5042194;28;45388;-51
2022/01/18 00:06:53;;;;;;;;;65.00;53.00;;;;;7.03;63.17;103349.94;5041897;28;45481;-51
2022/01/18 00:09:22;;;;;;;;;70.25;53.75;;;;;7.01;62.89;103354.19;5041778;28;46187;-50
2022/01/18 00:11:56;;;;;;;;;66.25;53.50;;;;;7.00;63.19;103347.19;5042115;28;45234;-48
2022/01/18 00:14:25;;;;;;;;;68.25;52.25;;;;;6.96;63.24;103346.16;5042316;28;45433;-48
2022/01/18 00:19:40;;;;;;;;;67.00;52.00;;;;;6.95;63.02;103352.19;5041960;28;45491;-47
2022/01/18 00:22:11;;;;;;;;;73.00;54.25;;;;;6.93;63.32;103338.19;5041026;28;45326;-48
2022/01/18 00:24:39;;;;;;;;;67.50;53.00;;;;;6.93;62.94;103345.13;5041926;28;45336;-46
2022/01/18 00:27:10;;;;;;;;;71.25;56.50;;;;;6.88;62.92;103350.19;5041882;28;45246;-47
2022/01/18 00:29:40;;;;;;;;;65.50;51.75;;;;;6.90;63.17;103338.03;5041855;28;46084;-47
2022/01/18 00:32:17;;;;;;;;;70.75;54.50;;;;;6.89;63.04;103332.75;5041678;28;45178;-48
2022/01/18 00:34:45;;;;;;;;;72.25;56.25;;;;;6.89;63.19;103343.22;5041891;28;45312;-46
2022/01/18 00:39:38;;;;;;;;;73.50;58.25;;;;;6.83;63.16;103318.59;5041505;28;46153;-45
2022/01/18 00:42:04;;;;;;;;;75.00;58.00;;;;;6.83;63.06;103331.66;5041744;28;45347;-46
2022/01/18 00:44:29;;;;;;;;;72.75;57.75;;;;;6.82;63.20;103335.09;5041852;28;45229;-45
2022/01/18 00:46:55;;;;;;;;;73.50;58.50;;;;;6.80;63.04;103321.06;5041668;28;45506;-49
2022/01/18 00:49:20;;;;;;;;;74.25;57.75;;;;;6.76;63.04;103323.50;5049421;28;46035;-47
2022/01/18 00:51:52;;;;;;;;;70.75;56.75;;;;;6.76;63.23;103334.84;5041257;28;45309;-45
2022/01/18 00:54:23;;;;;;;;;75.50;57.00;;;;;6.74;63.06;103318.22;5041521;28;45380;-45
2022/01/18 00:56:51;;;;;;;;;74.75;58.50;;;;;6.73;63.03;103326.88;5041477;28;45462;-45
2022/01/18 00:59:17;;;;;;;;;77.50;59.25;;;;;6.72;63.34;103337.28;5041259;28;46540;-45
2022/01/18 01:01:43;;;;;;;;;75.75;59.25;;;;;6.69;62.88;103324.94;5041207;28;45310;-46
2022/01/18 01:04:08;;;;;;;;;68.00;55.75;;;;;6.67;63.25;103321.38;5041397;28;45556;-48
2022/01/18 01:06:34;;;;;;;;;71.75;55.00;;;;;6.65;63.15;103331.78;5041129;28;45503;-47
2022/01/18 01:09:00;;;;;;;;;71.25;55.00;;;;;6.62;63.23;103321.19;5034973;28;47236;-47
2022/01/18 01:11:26;;;;;;;;;70.00;55.00;;;;;6.61;63.09;103318.50;5049912;28;45242;-47
2022/01/18 01:13:58;;;;;;;;;69.00;54.75;;;;;6.61;63.16;103342.03;5061423;28;45163;-46
2022/01/18 01:33:06;;;;;;;;;67.25;52.50;;;;;6.40;63.23;103326.28;5060824;28;45272;-47
2022/01/18 01:43:29;;;;;;;;;67.75;50.75;;;;;6.32;63.38;103344.25;5060837;28;45538;-47
2022/01/18 01:45:56;;;;;;;;;65.25;51.75;;;;;6.30;63.32;103340.66;5061047;28;45397;-49
2022/01/18 01:48:23;;;;;;;;;59.00;47.00;;;;;6.21;63.31;103321.97;5060723;28;45313;-47
2022/01/18 01:50:53;;;;;;;;;52.50;38.50;;;;;6.25;63.51;103348.31;5022863;28;46089;-49
2022/01/18 01:53:23;;;;;;;;;45.00;35.75;;;;;6.23;63.44;103341.22;5040773;28;45399;-46
2022/01/18 01:55:50;;;;;;;;;53.00;38.25;;;;;6.15;63.58;103327.78;5040576;28;45317;-47
2022/01/18 01:58:16;;;;;;;;;50.50;38.25;;;;;6.16;63.73;103340.94;5040680;28;45246;-45
2022/01/18 02:00:50;;;;;;;;;45.00;38.00;;;;;6.15;63.61;103333.00;5022408;28;46155;-48
2022/01/18 02:03:16;;;;;;;;;34.00;33.00;;;;;6.14;63.67;103342.56;5040477;28;45185;-45
2022/01/18 02:05:42;;;;;;;;;37.75;33.00;;;;;6.14;63.77;103346.91;5040188;28;45245;-48
2022/01/18 02:08:08;;;;;;;;;35.50;28.75;;;;;6.10;63.90;103337.13;5040269;28;45535;-47
2022/01/18 02:10:38;;;;;;;;;44.00;36.25;;;;;6.09;63.90;103338.88;5040127;28;45532;-45
2022/01/18 02:13:05;;;;;;;;;40.75;34.75;;;;;6.11;63.68;103344.16;5040409;28;45430;-47
2022/01/18 02:15:32;;;;;;;;;34.00;28.75;;;;;6.14;63.52;103346.91;5040418;28;45485;-45
2022/01/18 02:23:29;;;;;;;;;36.75;34.00;;;;;6.16;64.07;103337.41;5040160;28;45315;-46
2022/01/18 02:25:56;;;;;;;;;33.00;30.00;;;;;6.13;63.90;103326.84;5040149;28;45503;-46
2022/01/18 02:28:23;;;;;;;;;40.75;33.75;;;;;6.15;64.06;103349.59;5022249;28;45855;-47
2022/01/18 02:30:49;;;;;;;;;33.50;26.50;;;;;6.14;63.81;103345.19;5022234;28;47204;-45
2022/01/18 02:33:16;;;;;;;;;37.50;33.25;;;;;6.17;63.88;103326.16;5039935;28;45253;-50
2022/01/18 02:35:43;;;;;;;;;42.25;33.75;;;;;6.17;63.93;103323.53;5040043;28;45509;-45
2022/01/18 02:38:08;;;;;;;;;39.00;31.75;;;;;6.16;63.83;103334.81;5040083;28;45225;-44
2022/01/18 02:40:34;;;;;;;;;38.25;29.00;;;;;6.16;63.73;103322.66;5021856;28;45978;-44
2022/01/18 02:43:46;;;;;;;;;30.00;24.00;;;;;6.18;63.96;103318.38;5039865;28;45340;-47
2022/01/18 02:45:48;;;;;;;;;31.50;26.25;;;;;6.22;63.93;103318.53;5039526;28;45405;-44
2022/01/18 02:48:15;;;;;;;;;33.50;29.75;;;;;6.22;64.04;103306.38;5039595;28;45526;-45
2022/01/18 02:50:40;;;;;;;;;33.50;30.00;;;;;6.24;63.85;103303.81;5047605;28;45476;-45
2022/01/18 02:53:06;;;;;;;;;35.25;31.50;;;;;6.22;63.75;103306.38;5039536;28;45361;-44
2022/01/18 02:55:31;;;;;;;;;34.00;25.00;;;;;6.26;63.84;103310.88;5039823;28;45293;-46
2022/01/18 02:58:03;;;;;;;;;33.75;31.00;;;;;6.27;63.94;103294.41;5039472;28;45489;-46
2022/01/18 03:00:44;;;;;;;;;35.25;33.00;;;;;6.28;63.79;103293.56;5039494;28;46980;-48
2022/01/18 03:03:15;;;;;;;;;35.00;27.50;;;;;6.28;63.80;103293.56;5039660;28;45542;-46
2022/01/18 03:05:42;;;;;;;;;35.25;27.50;;;;;6.30;64.02;103293.63;5039376;28;45254;-47
2022/01/18 03:08:09;;;;;;;;;45.50;38.00;;;;;6.31;63.97;103293.72;5021342;28;45278;-48
2022/01/18 03:10:36;;;;;;;;;34.50;32.00;;;;;6.30;63.89;103286.72;5039149;28;47428;-47
2022/01/18 03:13:02;;;;;;;;;27.50;26.00;;;;;6.32;64.09;103277.22;5021709;28;45390;-47
2022/01/18 03:15:27;;;;;;;;;46.25;37.00;;;;;6.32;63.98;103285.03;5039319;28;45322;-46
2022/01/18 03:17:53;;;;;;;;;34.00;27.50;;;;;6.32;64.06;103284.16;5039347;28;45380;-46
2022/01/18 03:20:19;;;;;;;;;25.75;25.75;;;;;6.30;63.94;103272.75;5038887;28;45448;-44
2022/01/18 03:22:47;;;;;;;;;32.50;31.50;;;;;6.33;63.98;103281.63;5039215;28;45388;-47
2022/01/18 03:25:28;;;;;;;;;34.75;29.00;;;;;6.30;63.76;103275.34;5021499;28;45230;-47
2022/01/18 03:28:05;;;;;;;;;23.00;18.75;;;;;6.33;63.98;103267.69;5039424;28;45337;-45
2022/01/18 03:30:53;;;;;;;;;39.50;32.25;;;;;6.36;63.98;103277.38;5039027;28;45353;-48
2022/01/18 03:33:20;;;;;;;;;34.00;29.75;;;;;6.37;64.02;103281.75;5039251;28;45412;-48
2022/01/18 03:35:48;;;;;;;;;40.00;32.50;;;;;6.37;63.81;103264.38;5039087;28;45341;-45
2022/01/18 03:38:15;;;;;;;;;32.25;26.25;;;;;6.41;63.87;103270.63;5039256;28;45325;-45
2022/01/18 03:40:40;;;;;;;;;41.25;34.25;;;;;6.41;63.83;103284.56;5038904;28;47315;-46
2022/01/18 03:43:10;;;;;;;;;41.50;34.50;;;;;6.41;63.95;103274.09;5038967;28;45293;-45
2022/01/18 03:45:43;;;;;;;;;27.75;23.00;;;;;6.41;63.89;103265.41;5039422;28;45336;-49
2022/01/18 03:48:14;;;;;;;;;30.00;26.25;;;;;6.43;63.94;103280.31;5038888;28;45213;-47
2022/01/18 03:50:39;;;;;;;;;37.25;28.50;;;;;6.42;63.73;103275.91;5029134;28;46381;-46
2022/01/18 03:53:05;;;;;;;;;36.25;27.75;;;;;6.43;63.95;103269.84;5057549;28;45394;-49
2022/01/18 03:55:30;;;;;;;;;33.25;27.75;;;;;6.45;63.83;103277.75;5059110;28;45253;-45
2022/01/18 03:57:56;;;;;;;;;34.25;29.25;;;;;6.45;63.80;103276.06;5061499;28;45221;-46
2022/01/18 04:00:25;;;;;;;;;34.75;27.25;;;;;6.45;64.10;103267.31;5062397;28;45827;-46
2022/01/18 04:02:52;;;;;;;;;29.75;27.50;;;;;6.45;63.91;103270.81;5062383;28;45325;-48
2022/01/18 04:05:18;;;;;;;;;30.75;21.75;;;;;6.46;63.83;103271.72;5062549;28;45324;-48
2022/01/18 04:07:44;;;;;;;;;30.25;26.00;;;;;6.46;63.84;103269.97;5057403;28;45381;-45
2022/01/18 04:10:09;;;;;;;;;30.50;27.75;;;;;6.48;64.07;103264.84;5032979;28;47286;-46
2022/01/18 04:12:35;;;;;;;;;39.00;31.50;;;;;6.50;63.99;103273.63;5042167;28;45491;-47
2022/01/18 04:15:03;;;;;;;;;28.25;25.75;;;;;6.52;63.78;103271.97;5042402;28;45395;-46
2022/01/18 04:17:48;;;;;;;;;31.75;28.25;;;;;6.53;63.99;103263.31;5024096;28;45327;-47
2022/01/18 04:25:56;;;;;;;;;31.75;28.75;;;;;6.53;63.84;103263.31;5041882;28;45301;-46
2022/01/18 04:28:44;;;;;;;;;38.50;29.25;;;;;6.53;64.02;103260.69;5042020;28;45430;-45
2022/01/18 04:31:10;;;;;;;;;32.50;27.50;;;;;6.53;63.82;103259.78;5041885;28;46319;-49
2022/01/18 04:33:38;;;;;;;;;30.25;24.75;;;;;6.53;63.75;103257.19;5041769;28;45226;-46
2022/01/18 04:36:05;;;;;;;;;40.75;35.50;;;;;6.52;64.04;103261.53;5023812;28;45274;-45
2022/01/18 04:38:30;;;;;;;;;40.50;31.50;;;;;6.52;64.01;103266.75;5041755;28;45492;-48
2022/01/18 04:41:03;;;;;;;;;42.75;30.00;;;;;6.54;63.97;103269.41;5041530;28;45379;-48
2022/01/18 04:48:56;;;;;;;;;40.25;32.50;;;;;6.54;64.07;103259.88;5047310;28;45167;-48
2022/01/18 04:51:22;;;;;;;;;33.50;25.75;;;;;6.56;63.83;103254.72;5044521;28;46744;-45
2022/01/18 04:53:53;;;;;;;;;45.00;35.75;;;;;6.55;63.92;103251.19;5041569;28;45461;-46
2022/01/18 04:56:29;;;;;;;;;36.50;27.50;;;;;6.55;64.01;103248.56;5041643;28;45361;-48
2022/01/18 04:58:55;;;;;;;;;37.50;28.50;;;;;6.56;63.75;103252.09;5041437;28;45386;-46
2022/01/18 05:01:21;;;;;;;;;36.50;30.75;;;;;6.56;64.03;103263.44;5041378;28;45246;-49
2022/01/18 05:03:46;;;;;;;;;38.25;35.00;;;;;6.55;63.83;103260.75;5041440;28;45273;-45
2022/01/18 05:06:15;;;;;;;;;32.25;28.00;;;;;6.54;64.00;103269.41;5041043;28;45326;-47
2022/01/18 05:08:41;;;;;;;;;40.75;35.25;;;;;6.54;63.75;103258.97;5041220;28;45322;-46
2022/01/18 05:11:11;;;;;;;;;48.00;35.25;;;;;6.54;64.01;103266.81;5041068;28;45238;-45
2022/01/18 05:21:35;;;;;;;;;49.75;35.00;;;;;6.54;63.97;103266.81;5061009;28;45345;-48
2022/01/18 05:24:01;;;;;;;;;41.00;32.75;;;;;6.55;63.83;103271.22;5061079;28;45305;-47
2022/01/18 05:26:28;;;;;;;;;34.25;27.00;;;;;6.54;64.02;103270.34;5061377;28;45403;-48
2022/01/18 05:28:54;;;;;;;;;41.25;30.00;;;;;6.53;63.95;103273.75;5061156;28;45527;-48
2022/01/18 05:31:20;;;;;;;;;40.50;32.00;;;;;6.51;63.84;103267.56;5061066;28;46141;-47
2022/01/18 05:33:47;;;;;;;;;35.25;29.50;;;;;6.54;64.00;103278.16;5060971;28;45254;-46
2022/01/18 05:36:13;;;;;;;;;39.25;31.25;;;;;6.54;63.94;103277.25;5061151;28;45195;-49
2022/01/18 05:38:39;;;;;;;;;40.25;33.75;;;;;6.56;63.97;103267.78;5060978;28;45334;-46
2022/01/18 05:41:06;;;;;;;;;35.25;28.25;;;;;6.55;64.03;103264.25;5060933;28;45341;-46
2022/01/18 05:43:33;;;;;;;;;32.50;28.50;;;;;6.56;64.07;103254.72;5042708;28;45441;-47
2022/01/18 05:45:59;;;;;;;;;40.25;32.75;;;;;6.56;64.28;103246.88;5061152;28;45349;-47
2022/01/18 05:48:24;;;;;;;;;35.25;28.25;;;;;6.57;63.95;103251.28;5060740;28;45282;-45
2022/01/18 05:50:50;;;;;;;;;38.25;31.00;;;;;6.57;64.06;103241.72;5048506;28;46036;-46
2022/01/18 05:53:16;;;;;;;;;34.50;31.50;;;;;6.57;63.88;103246.06;5040591;28;45162;-46
2022/01/18 05:55:41;;;;;;;;;35.50;29.25;;;;;6.56;64.12;103254.72;5040794;28;45297;-45
2022/01/18 05:58:06;;;;;;;;;39.00;27.00;;;;;6.55;64.18;103247.69;5040510;28;45234;-45
2022/01/18 06:00:32;;;;;;;;;36.25;28.75;;;;;6.58;64.08;103258.25;5040589;28;46109;-45
2022/01/18 06:08:09;;;;;;;;;35.75;26.50;;;;;6.58;64.35;103245.19;5040504;28;45338;-48
2022/01/18 06:10:35;;;;;;;;;32.00;27.50;;;;;6.60;64.11;103241.84;5040199;28;47007;-46
2022/01/18 06:13:02;;;;;;;;;34.00;26.25;;;;;6.58;64.02;103221.69;5040314;28;45398;-46
2022/01/18 06:15:28;;;;;;;;;31.50;27.75;;;;;6.60;64.12;103233.09;5040565;28;45470;-47
2022/01/18 06:17:53;;;;;;;;;40.75;33.75;;;;;6.61;63.98;103245.34;5040348;28;45352;-48
2022/01/18 06:20:19;;;;;;;;;30.00;26.25;;;;;6.59;64.19;103244.38;5039355;28;45322;-47
2022/01/18 06:22:44;;;;;;;;;30.50;29.50;;;;;6.61;63.97;103250.56;5040284;28;45282;-46
2022/01/18 06:25:10;;;;;;;;;36.50;27.50;;;;;6.58;64.11;103256.56;5022226;28;45254;-46
2022/01/18 06:27:36;;;;;;;;;40.00;29.50;;;;;6.58;64.18;103255.66;5040251;28;45538;-46
2022/01/18 06:30:03;;;;;;;;;41.00;29.75;;;;;6.57;63.94;103254.78;5039886;28;46266;-46
2022/01/18 06:32:28;;;;;;;;;35.25;25.50;;;;;6.57;64.14;103260.00;5022233;28;45259;-46
2022/01/18 06:34:53;;;;;;;;;37.00;29.75;;;;;6.55;64.21;103255.53;5039856;28;45249;-47
2022/01/18 06:37:19;;;;;;;;;31.00;25.50;;;;;6.54;64.02;103256.34;5040232;28;45566;-45
2022/01/18 06:39:45;;;;;;;;;35.00;29.50;;;;;6.55;64.14;103259.03;5039618;28;46666;-46
2022/01/18 06:42:12;;;;;;;;;32.25;27.50;;;;;6.55;64.02;103252.91;5040051;28;45431;-48
2022/01/18 06:44:38;;;;;;;;;36.00;27.00;;;;;6.55;63.98;103252.91;5039869;28;45341;-49
2022/01/18 06:47:04;;;;;;;;;30.50;25.25;;;;;6.52;63.97;103256.31;5039849;28;45470;-49
2022/01/18 06:49:29;;;;;;;;;32.50;26.25;;;;;6.52;64.09;103263.25;5048046;28;45451;-45
2022/01/18 06:51:55;;;;;;;;;32.75;25.00;;;;;6.51;63.95;103251.91;5039533;28;45383;-47
2022/01/18 06:54:20;;;;;;;;;25.50;21.75;;;;;6.51;64.00;103254.50;5039759;28;45315;-46
2022/01/18 06:56:48;;;;;;;;;29.75;22.75;;;;;6.50;64.02;103257.94;5021853;28;45400;-46
2022/01/18 06:59:15;;;;;;;;;23.75;23.50;;;;;6.47;64.00;103257.81;5022239;28;46186;-47
2022/01/18 07:01:41;;;;;;;;;28.25;24.00;;;;;6.49;64.00;103261.38;5039548;28;45230;-49
2022/01/18 07:04:06;;;;;;;;;25.50;22.00;;;;;6.48;64.07;103262.22;5039454;28;45293;-46
2022/01/18 07:06:33;;;;;;;;;26.25;24.25;;;;;6.48;63.93;103259.63;5039141;28;45313;-46
2022/01/18 07:08:59;;;;;;;;;32.50;26.25;;;;;6.46;64.11;103256.03;5039263;28;45573;-47
2022/01/18 07:11:24;;;;;;;;;29.75;27.50;;;;;6.46;64.05;103256.03;5039325;28;45270;-46
2022/01/18 07:13:50;;;;;;;;;28.50;22.00;;;;;6.45;64.04;103260.38;5039635;28;45328;-46
2022/01/18 07:16:15;;;;;;;;;28.00;25.50;;;;;6.44;64.15;103252.44;5039546;28;45310;-48
2022/01/18 07:18:40;;;;;;;;;26.25;21.25;;;;;6.42;63.92;103244.56;5039364;28;46209;-47
2022/01/18 07:21:06;;;;;;;;;28.00;25.25;;;;;6.43;63.94;103254.19;5039207;28;45269;-46
2022/01/18 07:23:33;;;;;;;;;32.25;26.50;;;;;6.41;64.07;103245.38;5021763;28;45266;-45
2022/01/18 07:25:59;;;;;;;;;26.50;21.75;;;;;6.42;63.43;103249.78;5039355;28;45594;-47
2022/01/18 07:28:24;;;;;;;;;29.50;24.25;;;;;6.41;63.87;103254.94;5039202;28;46110;-45
2022/01/18 07:30:50;;;;;;;;;32.50;27.00;;;;;6.37;63.71;103247.81;5021669;28;45183;-47
2022/01/18 07:33:16;;;;;;;;;22.75;17.50;;;;;6.38;64.06;103253.09;5042391;28;45644;-49
2022/01/18 07:35:42;;;;;;;;;35.25;27.00;;;;;6.36;64.22;103252.13;5042789;28;45320;-48
2022/01/18 07:38:12;;;;;;;;;27.00;24.25;;;;;6.38;63.89;103258.31;5042656;28;46353;-45
2022/01/18 07:40:40;;;;;;;;;31.25;27.50;;;;;6.34;63.93;103246.84;5042576;28;45356;-48
2022/01/18 07:43:05;;;;;;;;;30.00;22.75;;;;;6.38;63.90;103257.41;5042938;28;45431;-46
2022/01/18 07:45:31;;;;;;;;;32.75;26.25;;;;;6.39;64.02;103260.09;5042571;28;45462;-47
2022/01/18 07:47:57;;;;;;;;;32.75;28.00;;;;;6.39;63.90;103254.88;5042581;28;46148;-46
2022/01/18 07:50:23;;;;;;;;;39.50;28.00;;;;;6.37;63.90;103259.13;5050299;28;45246;-48
2022/01/18 07:52:49;;;;;;;;;34.50;28.25;;;;;6.38;63.79;103255.72;5042813;28;45286;-49
2022/01/18 07:55:14;;;;;;;;;41.00;32.25;;;;;6.40;63.90;103255.75;5042530;28;45365;-49
2022/01/18 07:57:43;;;;;;;;;45.25;38.50;;;;;6.39;63.84;103241.81;5042445;28;46080;-49
2022/01/18 08:00:10;;;;;;;;;36.75;28.50;;;;;6.40;64.13;103242.72;5040939;28;45313;-48
2022/01/18 08:02:36;;;;;;;;;34.50;32.00;;;;;6.42;63.99;103247.16;5045794;28;45458;-47
2022/01/18 08:05:03;;;;;;;;;34.25;30.00;;;;;6.43;63.93;103245.47;5041990;28;45269;-48
2022/01/18 08:07:29;;;;;;;;;33.75;27.75;;;;;6.44;63.89;103248.13;5042013;28;46419;-48
2022/01/18 08:09:54;;;;;;;;;34.50;32.75;;;;;6.45;64.16;103246.41;5042142;28;45364;-45
2022/01/18 08:12:19;;;;;;;;;35.50;30.50;;;;;6.45;63.95;103242.09;5042466;28;45246;-47
2022/01/18 08:14:46;;;;;;;;;39.25;30.50;;;;;6.47;64.09;103236.94;5024494;28;45560;-47
2022/01/18 08:17:12;;;;;;;;;31.50;27.50;;;;;6.49;64.13;103241.38;5041862;28;46159;-46
2022/01/18 08:19:38;;;;;;;;;37.50;32.00;;;;;6.53;64.26;103233.66;5024115;28;45353;-46
2022/01/18 08:22:04;;;;;;;;;33.75;30.50;;;;;6.56;64.00;103236.44;5042098;28;45276;-51
2022/01/18 08:24:29;;;;;;;;;39.00;28.50;;;;;6.59;64.26;103236.53;5041914;28;45441;-45
2022/01/18 08:26:55;;;;;;;;;32.50;29.50;;;;;6.61;64.13;103237.50;5041839;28;45953;-47
2022/01/18 08:29:21;;;;;;;;;40.75;35.25;;;;;6.64;64.06;103232.41;5042123;28;45379;-50
2022/01/18 08:31:47;;;;;;;;;34.75;30.25;;;;;6.66;64.23;103239.47;5041864;28;45341;-51
2022/01/18 08:34:13;;;;;;;;;34.75;28.75;;;;;6.70;64.22;103242.22;5024237;28;45367;-50
2022/01/18 08:36:38;;;;;;;;;35.50;32.50;;;;;6.74;64.15;103241.53;5023599;28;47300;-46
2022/01/18 08:39:05;;;;;;;;;40.00;28.75;;;;;6.76;64.25;103242.50;5041703;28;45336;-50
2022/01/18 08:41:31;;;;;;;;;35.50;31.25;;;;;6.79;64.18;103238.28;5041797;28;45204;-49
2022/01/18 08:43:57;;;;;;;;;32.25;28.75;;;;;6.82;64.41;103243.63;5041356;28;45308;-50
2022/01/18 08:46:22;;;;;;;;;40.00;34.75;;;;;6.86;64.38;103238.53;5041535;28;46236;-50
2022/01/18 08:48:49;;;;;;;;;38.25;34.50;;;;;6.91;64.44;103234.38;5045894;28;45266;-50
2022/01/18 08:51:15;;;;;;;;;33.75;28.25;;;;;6.94;64.31;103231.88;5046329;28;45223;-50
2022/01/18 08:53:41;;;;;;;;;32.75;28.25;;;;;7.00;64.24;103232.13;5041540;28;45379;-47
2022/01/18 08:56:06;;;;;;;;;36.25;29.50;;;;;7.06;64.25;103232.38;5041280;28;47177;-49
2022/01/18 08:58:34;;;;;;;;;33.00;27.50;;;;;7.13;64.61;103230.91;5041457;28;45266;-50
2022/01/18 09:01:02;;;;;;;;;31.50;28.50;;;;;7.21;64.40;103228.56;5041667;28;45388;-49
2022/01/18 09:03:27;;;;;;;;;36.75;30.00;;;;;7.29;64.68;103229.78;5041536;28;45489;-50
2022/01/18 09:05:53;;;;;;;;;30.25;24.75;;;;;7.36;64.87;103221.34;5040979;28;45238;-48
2022/01/18 09:08:20;;;;;;;;;34.25;30.25;;;;;7.45;64.80;103221.69;5023300;28;45722;-48
2022/01/18 09:10:47;;;;;;;;;40.50;31.50;;;;;7.54;64.54;103220.28;5041394;28;45821;-50
2022/01/18 09:13:14;;;;;;;;;34.00;29.00;;;;;7.60;64.66;103217.91;5041242;28;45333;-46
2022/01/18 09:15:39;;;;;;;;;33.50;30.00;;;;;7.71;64.64;103208.72;5041203;28;47072;-50
2022/01/18 09:18:05;;;;;;;;;34.00;25.75;;;;;7.81;64.76;103215.16;5041213;28;45325;-49
2022/01/18 09:20:31;;;;;;;;;31.00;27.75;;;;;7.87;64.73;103206.66;5041172;28;45392;-50
2022/01/18 09:22:57;;;;;;;;;33.25;27.00;;;;;7.99;64.83;103207.09;5041524;28;45464;-49
2022/01/18 09:25:26;;;;;;;;;29.25;25.75;;;;;8.07;64.95;103210.88;5041181;28;45471;-49
2022/01/18 09:27:53;;;;;;;;;32.00;28.75;;;;;8.18;64.73;103210.38;5041192;28;45444;-50
2022/01/18 09:30:19;;;;;;;;;32.25;27.50;;;;;8.26;64.87;103211.53;5041066;28;45234;-51
2022/01/18 09:32:46;;;;;;;;;30.00;21.25;;;;;8.34;64.42;103212.69;5041145;28;45329;-47
2022/01/18 09:35:13;;;;;;;;;36.25;30.75;;;;;8.44;64.88;103219.16;5040649;28;45360;-46
2022/01/18 09:37:38;;;;;;;;;38.00;32.25;;;;;8.54;65.05;103220.38;5041183;28;45289;-48
2022/01/18 09:40:06;;;;;;;;;30.75;25.00;;;;;8.61;64.85;103215.38;5040736;28;45159;-51
2022/01/18 09:42:37;;;;;;;;;42.25;35.50;;;;;8.72;65.16;103210.50;5041090;28;45400;-50
2022/01/18 09:45:11;;;;;;;;;37.00;31.25;;;;;8.84;64.82;103217.00;5040670;28;47198;-51
2022/01/18 09:47:38;;;;;;;;;35.00;31.50;;;;;8.93;65.11;103214.66;5040829;28;45308;-50
2022/01/18 09:50:07;;;;;;;;;35.75;27.25;;;;;9.00;65.00;103211.41;5049229;28;45225;-52
2022/01/18 09:52:32;;;;;;;;;37.25;28.75;;;;;9.09;65.07;103219.56;5040734;28;45453;-50
2022/01/18 09:54:58;;;;;;;;;33.00;28.50;;;;;9.20;64.88;103222.50;5021704;28;46302;-47
2022/01/18 09:57:23;;;;;;;;;31.75;27.50;;;;;9.30;64.95;103222.81;5040881;28;45478;-49
2022/01/18 09:59:49;;;;;;;;;34.75;27.00;;;;;9.39;65.05;103223.97;5040768;28;45311;-49
2022/01/18 10:02:14;;;;;;;;;28.25;23.75;;;;;9.50;64.92;103220.78;5035518;28;45456;-52
2022/01/18 10:04:42;;;;;;;;;32.50;26.25;;;;;9.58;65.02;103212.31;5040785;28;45442;-49
2022/01/18 10:07:07;;;;;;;;;37.50;30.00;;;;;9.67;65.13;103219.56;5040676;28;45432;-48
2022/01/18 10:09:34;;;;;;;;;32.75;29.75;;;;;9.75;65.06;103207.53;5040364;28;45317;-50
2022/01/18 10:12:14;;;;;;;;;33.25;30.75;;;;;9.88;65.00;103215.75;5022877;28;45204;-47
2022/01/18 10:15:00;;;;;;;;;38.75;32.25;;;;;9.98;65.02;103209.91;5048807;28;46080;-47
2022/01/18 10:17:30;;;;;;;;;32.75;25.00;;;;;10.11;65.15;103210.25;5060323;28;45375;-49
2022/01/18 10:20:03;;;;;;;;;33.75;28.25;;;;;10.20;65.06;103211.41;5060588;28;45294;-47
2022/01/18 10:22:40;;;;;;;;;36.25;29.50;;;;;10.33;64.82;103207.34;5060296;28;45473;-49
2022/01/18 10:25:33;;;;;;;;;36.25;31.75;;;;;10.46;64.97;103203.31;5041939;28;47005;-51
2022/01/18 10:27:58;;;;;;;;;43.75;34.25;;;;;10.58;64.91;103197.50;5060586;28;45216;-46
2022/01/18 10:30:43;;;;;;;;;35.50;31.50;;;;;10.69;65.03;103201.28;5060308;28;45422;-51
2022/01/18 10:33:14;;;;;;;;;35.25;28.00;;;;;10.81;65.04;103192.78;5060350;28;45236;-49
2022/01/18 10:36:10;;;;;;;;;38.75;32.00;;;;;10.94;64.92;103190.44;5059900;28;45455;-47
2022/01/18 10:38:37;;;;;;;;;34.00;26.50;;;;;11.04;65.09;103166.13;5059967;28;45295;-49
2022/01/18 10:41:32;;;;;;;;;39.75;31.50;;;;;11.19;65.09;103177.00;5041665;28;45463;-51
2022/01/18 10:44:15;;;;;;;;;31.50;26.00;;;;;11.31;64.76;103170.25;5060132;28;45360;-51
2022/01/18 10:46:43;;;;;;;;;30.25;28.00;;;;;11.44;65.07;103160.84;5059768;28;45441;-50
2022/01/18 10:49:10;;;;;;;;;34.75;29.50;;;;;11.53;64.95;103155.75;5060126;28;45280;-47
2022/01/18 10:51:38;;;;;;;;;30.25;27.75;;;;;11.65;64.87;103150.75;5041456;28;45317;-49
2022/01/18 10:54:09;;;;;;;;;33.50;28.00;;;;;11.77;64.68;103144.81;5021318;28;45579;-46
2022/01/18 10:56:42;;;;;;;;;40.00;28.25;;;;;11.91;64.72;103142.47;5039179;28;45269;-48
2022/01/18 10:59:19;;;;;;;;;33.50;26.00;;;;;11.96;64.76;103130.28;5039692;28;45214;-51
2022/01/18 11:01:44;;;;;;;;;32.25;29.75;;;;;12.12;64.74;103141.09;5021918;28;45427;-48
2022/01/18 11:04:11;;;;;;;;;32.00;26.50;;;;;12.22;64.68;103137.75;5039648;28;45428;-47
2022/01/18 11:06:43;;;;;;;;;30.00;27.00;;;;;12.33;64.70;103136.19;5039069;28;46273;-47
2022/01/18 11:09:10;;;;;;;;;27.75;26.75;;;;;12.43;64.21;103131.09;5039442;28;45167;-47
2022/01/18 11:11:43;;;;;;;;;25.50;22.25;;;;;12.54;64.26;103118.94;5039846;28;45521;-51
2022/01/18 11:14:11;;;;;;;;;29.75;27.00;;;;;12.63;64.22;103111.16;5039433;28;45301;-50
2022/01/18 11:16:44;;;;;;;;;24.25;20.75;;;;;12.75;64.18;103104.28;5039602;28;45353;-51
2022/01/18 11:19:30;;;;;;;;;23.50;22.25;;;;;12.84;64.34;103089.47;5039419;28;45230;-51
2022/01/18 11:22:00;;;;;;;;;28.00;25.50;;;;;12.99;64.05;103086.16;5039286;28;45348;-50
2022/01/18 11:24:25;;;;;;;;;24.25;21.25;;;;;13.15;64.27;103094.28;5005106;28;45395;-50
2022/01/18 11:26:51;;;;;;;;;23.25;20.25;;;;;13.24;63.86;103086.44;5021201;28;46279;-49
2022/01/18 11:29:19;;;;;;;;;21.25;19.50;;;;;13.35;63.82;103083.94;5039437;28;45298;-49
2022/01/18 11:31:46;;;;;;;;;17.00;15.00;;;;;13.47;63.73;103083.22;5021747;28;45498;-52
2022/01/18 11:34:16;;;;;;;;;17.00;13.50;;;;;13.56;63.60;103077.16;5039400;28;45328;-48
2022/01/18 11:36:48;;;;;;;;;17.75;16.50;;;;;13.66;63.34;103068.47;5034630;28;45291;-52
2022/01/18 11:39:17;;;;;;;;;16.50;14.50;;;;;13.73;63.22;103062.34;5039203;28;45333;-48
2022/01/18 11:41:43;;;;;;;;;19.75;15.00;;;;;13.83;62.83;103052.75;5021544;28;45302;-47
2022/01/18 11:44:29;;;;;;;;;19.50;16.00;;;;;13.93;63.21;103048.44;5021328;28;45970;-50
2022/01/18 11:46:55;;;;;;;;;20.00;15.00;;;;;13.95;62.63;103047.59;5039041;28;47049;-46
2022/01/18 11:49:24;;;;;;;;;19.50;17.50;;;;;14.05;62.78;103043.28;5047531;28;45261;-49
2022/01/18 11:52:00;;;;;;;;;22.00;15.25;;;;;14.12;63.02;103047.75;5039266;28;45344;-50
2022/01/18 11:54:34;;;;;;;;;14.00;13.00;;;;;14.20;62.72;103044.25;5038834;28;45269;-49
2022/01/18 11:57:15;;;;;;;;;21.50;17.00;;;;;14.24;62.86;103035.47;5037196;28;46135;-48
2022/01/18 11:59:41;;;;;;;;;19.00;15.00;;;;;14.27;62.65;103023.13;5040357;28;45515;-47
2022/01/18 12:02:07;;;;;;;;;20.75;18.50;;;;;14.38;62.77;103032.94;5039226;28;45330;-50
2022/01/18 12:04:46;;;;;;;;;22.75;19.00;;;;;14.46;62.61;103021.53;5038566;28;45249;-47
2022/01/18 12:07:34;;;;;;;;;14.50;14.50;;;;;14.54;62.19;103021.56;5038609;28;46172;-50
2022/01/18 12:10:21;;;;;;;;;16.25;16.00;;;;;14.65;62.42;103020.75;5038617;28;45303;-49
2022/01/18 12:12:51;;;;;;;;;16.50;13.50;;;;;14.68;62.56;103004.88;5039039;28;45264;-51
2022/01/18 12:15:19;;;;;;;;;16.50;14.25;;;;;14.81;62.14;103017.28;5038909;28;45238;-51
2022/01/18 12:17:57;;;;;;;;;19.75;16.75;;;;;14.88;62.23;103019.09;5039586;28;46055;-48
2022/01/18 12:20:32;;;;;;;;;15.25;13.75;;;;;14.98;62.06;103000.59;5041905;28;45313;-48
2022/01/18 12:23:09;;;;;;;;;16.25;11.25;;;;;15.08;62.12;103002.38;5040234;28;45336;-51